Time;durP1;ratioP1;P1;durP2;ratioP2;P2;SDS_P1;SDS_P2;PMS_P1;PMS_P2;Temp;Humidity;BMP_temperature;BMP_pressure;BME280_temperature;BME280_humidity;BME280_pressure;Samples;Min_cycle;Max_cycle;Signal;HPM_P1;HPM_P2
2021/09/07 00:01:07;;;;;;;;;16.33;15.00;;;;;22.31;53.13;101893.53;4969131;28;55040;-75
2021/09/07 00:03:33;;;;;;;;;16.67;16.67;;;;;22.27;53.48;101889.16;4967461;28;50271;-75
2021/09/07 00:05:59;;;;;;;;;17.00;15.67;;;;;22.20;53.57;101889.25;4967318;28;45672;-74
2021/09/07 00:08:24;;;;;;;;;18.00;17.00;;;;;22.16;53.27;101886.69;4967481;28;47705;-74
2021/09/07 00:10:49;;;;;;;;;17.00;15.67;;;;;22.20;53.41;101899.16;4968565;28;54409;-74
2021/09/07 00:13:15;;;;;;;;;17.00;15.33;;;;;22.16;53.64;101898.34;4968832;28;54372;-76
2021/09/07 00:15:40;;;;;;;;;11.00;8.00;;;;;22.13;53.28;101886.75;4969274;28;46315;-74
2021/09/07 00:18:05;;;;;;;;;16.00;14.33;;;;;22.15;53.46;101899.22;4968238;28;58062;-74
2021/09/07 00:20:31;;;;;;;;;16.00;15.00;;;;;22.10;54.26;101892.13;4967854;28;51540;-75
2021/09/07 00:22:56;;;;;;;;;17.67;16.33;;;;;22.08;53.92;101891.28;4968358;28;47463;-74
2021/09/07 00:25:22;;;;;;;;;19.33;16.33;;;;;22.09;53.96;101899.31;4968603;28;52374;-74
2021/09/07 00:27:47;;;;;;;;;16.00;15.33;;;;;22.06;53.56;101887.75;4967314;28;45539;-75
2021/09/07 00:30:13;;;;;;;;;21.33;17.67;;;;;22.04;53.92;101893.16;4968581;28;45441;-76
2021/09/07 00:32:38;;;;;;;;;17.00;14.67;;;;;22.00;54.06;101887.84;4969343;28;45440;-74
2021/09/07 00:35:04;;;;;;;;;12.33;8.33;;;;;21.92;54.40;101880.84;4966307;28;45556;-74
2021/09/07 00:37:29;;;;;;;;;16.00;14.00;;;;;21.94;54.50;101886.16;4968153;28;47791;-74
2021/09/07 00:39:54;;;;;;;;;19.33;15.33;;;;;21.92;53.99;101888.03;4965933;28;51678;-74
2021/09/07 00:42:20;;;;;;;;;14.33;12.33;;;;;21.87;53.81;101877.34;4969343;28;49777;-74
2021/09/07 00:44:45;;;;;;;;;13.67;12.67;;;;;21.86;54.39;101890.81;4968507;28;45779;-74
2021/09/07 00:47:11;;;;;;;;;15.67;13.67;;;;;21.84;54.02;101881.88;4969690;28;56011;-74
2021/09/07 00:49:36;;;;;;;;;13.00;13.00;;;;;21.79;54.53;101873.94;4990607;28;46407;-75
2021/09/07 00:52:03;;;;;;;;;18.00;14.33;;;;;21.79;54.61;101881.13;4969145;28;45550;-74
2021/09/07 00:54:30;;;;;;;;;17.00;15.67;;;;;21.74;54.62;101878.50;4969218;28;47086;-74
2021/09/07 00:56:55;;;;;;;;;12.33;12.33;;;;;21.71;54.48;101874.06;5034722;28;45913;-74
2021/09/07 00:59:21;;;;;;;;;14.67;13.67;;;;;21.66;55.21;101869.69;4970923;28;45419;-74
2021/09/07 01:01:47;;;;;;;;;16.33;14.00;;;;;21.62;55.40;101858.09;4972204;28;45477;-74
2021/09/07 01:04:12;;;;;;;;;12.67;11.67;;;;;21.59;54.98;101865.34;4964254;28;45467;-73
2021/09/07 01:06:38;;;;;;;;;17.33;13.33;;;;;21.54;55.43;101857.34;4963391;28;59829;-74
2021/09/07 01:09:03;;;;;;;;;18.67;16.00;;;;;21.52;55.15;101855.59;5038399;28;45421;-74
2021/09/07 01:11:28;;;;;;;;;13.33;13.33;;;;;21.49;55.69;101858.34;5039191;28;46065;-74
2021/09/07 01:13:54;;;;;;;;;16.67;13.00;;;;;21.46;55.32;101856.59;5050422;28;52432;-74
2021/09/07 01:16:19;;;;;;;;;15.00;12.67;;;;;21.41;55.23;101853.09;4971643;28;46243;-75
2021/09/07 01:18:45;;;;;;;;;15.00;14.00;;;;;21.39;55.17;101853.13;4968125;28;60814;-74
2021/09/07 01:21:14;;;;;;;;;17.33;13.67;;;;;21.31;55.80;101847.03;4971869;28;45513;-74
2021/09/07 01:23:41;;;;;;;;;19.33;18.33;;;;;21.30;55.91;101842.53;5054974;28;45510;-74
2021/09/07 01:26:07;;;;;;;;;13.00;13.00;;;;;21.29;56.14;101848.81;4966538;28;47649;-74
2021/09/07 01:28:33;;;;;;;;;14.33;14.00;;;;;21.26;55.68;101856.94;4954858;28;46551;-76
2021/09/07 01:30:58;;;;;;;;;18.33;15.00;;;;;21.25;55.69;101851.56;4962416;28;45467;-74
2021/09/07 01:33:23;;;;;;;;;16.00;16.00;;;;;21.21;55.87;101850.75;5038439;28;45912;-74
2021/09/07 01:35:49;;;;;;;;;20.00;16.33;;;;;21.20;55.91;101843.59;4970676;28;59590;-74
2021/09/07 01:38:14;;;;;;;;;18.67;15.00;;;;;21.17;56.15;101839.16;5038119;28;56016;-75
2021/09/07 01:40:40;;;;;;;;;17.00;15.00;;;;;21.16;55.63;101845.44;4964946;28;52021;-75
2021/09/07 01:43:05;;;;;;;;;16.67;15.00;;;;;21.15;56.29;101841.00;4969203;28;50332;-75
2021/09/07 01:45:30;;;;;;;;;18.00;16.67;;;;;21.14;55.67;101839.19;4970171;28;58287;-74
2021/09/07 01:47:56;;;;;;;;;19.33;19.33;;;;;21.09;56.40;101835.72;4969553;28;50090;-74
2021/09/07 01:50:22;;;;;;;;;17.00;17.00;;;;;21.09;55.56;101845.56;4988258;28;48588;-74
2021/09/07 01:52:47;;;;;;;;;24.33;21.00;;;;;21.09;55.86;101845.56;4971033;28;45520;-74
2021/09/07 01:55:13;;;;;;;;;19.33;17.00;;;;;21.09;56.72;101848.25;4966246;28;47438;-74
2021/09/07 01:57:38;;;;;;;;;20.67;19.33;;;;;21.07;55.86;101845.59;4970941;28;46173;-74
2021/09/07 02:00:04;;;;;;;;;21.67;19.00;;;;;21.05;56.07;101839.38;4968297;28;45934;-74
2021/09/07 02:02:29;;;;;;;;;22.00;21.00;;;;;21.05;56.51;101835.81;4967888;28;45540;-73
2021/09/07 02:04:55;;;;;;;;;20.33;18.67;;;;;21.03;56.78;101837.59;4965215;28;60569;-74
2021/09/07 02:07:20;;;;;;;;;22.00;18.00;;;;;21.02;56.13;101838.53;4963796;28;45309;-74
2021/09/07 02:09:46;;;;;;;;;21.00;20.00;;;;;20.98;56.87;101840.34;4964195;28;45379;-75
2021/09/07 02:12:11;;;;;;;;;19.33;16.67;;;;;20.96;56.45;101846.69;4969648;28;45546;-74
2021/09/07 02:14:36;;;;;;;;;17.33;15.67;;;;;20.93;56.55;101843.16;4970268;28;46270;-74
2021/09/07 02:17:02;;;;;;;;;17.00;16.33;;;;;20.88;56.12;101836.06;4970750;28;49862;-74
2021/09/07 02:19:27;;;;;;;;;19.00;16.67;;;;;20.89;56.87;101838.72;4970823;28;45581;-74
2021/09/07 02:21:53;;;;;;;;;18.33;17.33;;;;;20.88;56.88;101828.91;4970733;28;45610;-74
2021/09/07 02:24:18;;;;;;;;;20.00;19.00;;;;;20.86;57.19;101833.38;4969887;28;58138;-74
2021/09/07 02:26:44;;;;;;;;;18.67;18.00;;;;;20.84;56.77;101835.22;4967645;28;58451;-74
2021/09/07 02:29:09;;;;;;;;;17.00;17.00;;;;;20.83;56.84;101833.47;4970824;28;45502;-74
2021/09/07 02:31:35;;;;;;;;;18.00;16.67;;;;;20.81;57.32;101826.31;4967573;28;52920;-74
2021/09/07 02:34:00;;;;;;;;;17.33;16.00;;;;;20.77;57.33;101825.47;4963661;28;49954;-74
2021/09/07 02:36:26;;;;;;;;;16.33;15.33;;;;;20.76;57.36;101818.34;4964251;28;45653;-74
2021/09/07 02:38:55;;;;;;;;;19.67;17.00;;;;;20.73;57.12;101813.03;4966625;28;45513;-73
2021/09/07 02:41:21;;;;;;;;;17.00;14.67;;;;;20.70;56.98;101813.06;4964182;28;45640;-75
2021/09/07 02:43:47;;;;;;;;;18.00;16.00;;;;;20.69;57.76;101810.41;4953577;28;46636;-74
2021/09/07 02:46:12;;;;;;;;;17.67;17.00;;;;;20.67;56.95;101807.75;4972272;28;45545;-74
2021/09/07 02:48:38;;;;;;;;;15.33;15.33;;;;;20.64;57.03;101810.47;4970205;28;47530;-74
2021/09/07 02:51:03;;;;;;;;;17.67;17.67;;;;;20.63;57.83;101814.09;4968934;28;45525;-74
2021/09/07 02:53:28;;;;;;;;;17.00;15.67;;;;;20.60;57.58;101811.44;4970478;28;46536;-74
2021/09/07 02:55:54;;;;;;;;;18.33;15.33;;;;;20.56;57.65;101809.69;5034171;28;49446;-74
2021/09/07 02:58:19;;;;;;;;;20.00;18.67;;;;;20.52;57.84;101805.31;4967868;28;51314;-73
2021/09/07 03:00:54;;;;;;;;;20.00;16.00;;;;;20.52;57.96;101800.81;4967825;28;52405;-75
2021/09/07 03:03:19;;;;;;;;;17.67;16.33;;;;;20.50;58.00;101804.41;4953157;28;64091;-74
2021/09/07 03:05:44;;;;;;;;;18.67;18.33;;;;;20.47;57.90;101796.44;4967038;28;45380;-74
2021/09/07 03:08:10;;;;;;;;;17.67;17.67;;;;;20.44;58.00;101791.94;4964668;28;50857;-74
2021/09/07 03:10:35;;;;;;;;;15.00;15.00;;;;;20.41;58.75;101787.53;4970103;28;52785;-74
2021/09/07 03:13:01;;;;;;;;;18.67;17.33;;;;;20.24;58.55;101765.44;4970056;28;47351;-74
2021/09/07 03:15:26;;;;;;;;;17.67;15.67;;;;;20.37;58.34;101782.22;4969233;28;51421;-74
2021/09/07 03:17:51;;;;;;;;;18.00;18.00;;;;;20.34;58.37;101791.19;5037141;28;52183;-75
2021/09/07 03:20:17;;;;;;;;;16.33;15.33;;;;;20.30;58.60;101786.81;4964934;28;48220;-74
2021/09/07 03:22:42;;;;;;;;;19.33;17.33;;;;;20.25;58.22;101788.66;5028639;28;46621;-74
2021/09/07 03:25:08;;;;;;;;;16.00;16.00;;;;;20.27;58.69;101791.31;4963185;28;45609;-74
2021/09/07 03:27:34;;;;;;;;;17.67;16.00;;;;;20.25;59.06;101794.03;4967679;28;45775;-74
2021/09/07 03:29:59;;;;;;;;;18.00;16.33;;;;;20.23;58.42;101793.13;4965371;28;49244;-74
2021/09/07 03:32:25;;;;;;;;;21.33;19.00;;;;;20.21;59.06;101792.28;4968183;28;53329;-74
2021/09/07 03:34:51;;;;;;;;;22.00;18.33;;;;;20.15;58.82;101789.69;4966608;28;45826;-74
2021/09/07 03:37:16;;;;;;;;;21.67;18.67;;;;;20.17;58.99;101787.84;4962779;28;45389;-75
2021/09/07 03:39:42;;;;;;;;;22.00;19.67;;;;;20.15;59.04;101779.84;4955404;28;49565;-72
2021/09/07 03:42:07;;;;;;;;;16.67;16.67;;;;;20.14;59.09;101785.25;4961909;28;60487;-76
2021/09/07 03:44:32;;;;;;;;;18.00;18.00;;;;;20.13;58.97;101783.44;4969098;28;45409;-73
2021/09/07 03:46:58;;;;;;;;;20.00;16.67;;;;;20.11;59.48;101785.25;4966627;28;50573;-73
2021/09/07 03:49:24;;;;;;;;;19.00;16.67;;;;;20.07;59.10;101787.09;4965070;28;45673;-75
2021/09/07 03:51:49;;;;;;;;;18.33;18.33;;;;;20.07;59.44;101780.84;4969022;28;46044;-74
2021/09/07 03:54:15;;;;;;;;;18.00;16.33;;;;;20.04;59.45;101779.09;4969449;28;45637;-73
2021/09/07 03:56:40;;;;;;;;;27.00;19.67;;;;;20.04;59.49;101783.59;4968506;28;45432;-74
2021/09/07 03:59:05;;;;;;;;;21.00;19.00;;;;;20.02;59.75;101788.06;4969073;28;45398;-73
2021/09/07 04:01:31;;;;;;;;;16.33;16.33;;;;;19.96;59.72;101774.75;4968547;28;46497;-73
2021/09/07 04:03:56;;;;;;;;;19.33;18.33;;;;;19.98;59.67;101776.50;4966849;28;56324;-74
2021/09/07 04:06:22;;;;;;;;;22.33;20.33;;;;;19.97;59.84;101776.50;4966709;28;45684;-73
2021/09/07 04:08:47;;;;;;;;;17.67;17.67;;;;;19.95;60.28;101784.56;4967463;28;45420;-74
2021/09/07 04:11:12;;;;;;;;;17.67;15.67;;;;;19.93;60.25;101775.69;4965142;28;59688;-73
2021/09/07 04:13:38;;;;;;;;;19.67;17.00;;;;;19.91;59.76;101773.91;4969041;28;47560;-74
2021/09/07 04:16:04;;;;;;;;;18.00;18.00;;;;;19.88;60.24;101777.53;4968003;28;45518;-74
2021/09/07 04:18:29;;;;;;;;;19.00;17.00;;;;;19.86;60.41;101776.63;4968695;28;52096;-73
2021/09/07 04:20:54;;;;;;;;;17.67;16.00;;;;;19.84;59.83;101782.03;4968106;28;45404;-73
2021/09/07 04:23:20;;;;;;;;;17.00;17.00;;;;;19.82;60.14;101781.16;4966592;28;45442;-73
2021/09/07 04:25:45;;;;;;;;;17.00;15.00;;;;;19.81;59.63;101783.84;4968786;28;45986;-73
2021/09/07 04:28:11;;;;;;;;;16.67;16.67;;;;;19.78;60.46;101786.59;4968162;28;50990;-73
2021/09/07 04:30:36;;;;;;;;;18.67;18.00;;;;;19.77;60.23;101793.75;4967196;28;46155;-73
2021/09/07 04:33:01;;;;;;;;;18.00;18.00;;;;;19.69;60.41;101779.53;4957893;28;45591;-73
2021/09/07 04:35:27;;;;;;;;;17.67;16.00;;;;;19.75;60.40;101794.66;5091130;22;47557;-75
2021/09/07 04:37:52;;;;;;;;;19.00;17.67;;;;;19.76;60.47;101801.78;5007199;28;45533;-74
2021/09/07 04:40:18;;;;;;;;;17.33;16.33;;;;;19.76;60.38;101804.44;5007303;28;61191;-75
2021/09/07 04:42:43;;;;;;;;;22.67;17.67;;;;;19.76;60.20;101807.13;5007794;28;45464;-75
2021/09/07 04:45:09;;;;;;;;;19.33;18.33;;;;;19.72;60.81;101800.94;5007993;28;46073;-75
2021/09/07 04:47:34;;;;;;;;;20.67;17.00;;;;;19.72;61.03;101810.78;5005093;28;45472;-74
2021/09/07 04:50:00;;;;;;;;;19.00;19.00;;;;;19.72;60.81;101806.31;4993241;28;47450;-77
2021/09/07 04:52:28;;;;;;;;;18.67;18.67;;;;;19.72;60.54;101814.34;4988335;28;45460;-77
2021/09/07 04:54:54;;;;;;;;;17.00;15.00;;;;;19.71;61.11;101808.97;4990801;28;45845;-75
2021/09/07 04:57:19;;;;;;;;;21.00;19.67;;;;;19.69;60.94;101806.31;4991051;28;45406;-76
2021/09/07 04:59:44;;;;;;;;;24.67;18.00;;;;;19.67;61.16;101802.78;4995414;27;54167;-77
2021/09/07 05:02:10;;;;;;;;;20.00;18.33;;;;;19.66;60.80;101806.38;5000144;28;45638;-78
2021/09/07 05:04:35;;;;;;;;;17.00;16.33;;;;;19.64;61.48;101808.16;4999657;28;45494;-76
2021/09/07 05:07:01;;;;;;;;;20.00;17.00;;;;;19.64;61.35;101805.47;5001423;28;51665;-74
2021/09/07 05:09:26;;;;;;;;;18.67;18.00;;;;;19.63;61.43;101804.59;5006654;28;60301;-75
2021/09/07 05:12:25;;;;;;;;;21.33;18.67;;;;;19.61;61.44;101808.22;5005112;28;45496;-74
2021/09/07 05:14:50;;;;;;;;;17.67;17.67;;;;;19.59;60.90;101813.56;4997452;27;45554;-74
2021/09/07 05:17:16;;;;;;;;;21.67;19.67;;;;;19.59;61.45;101810.00;5005947;28;45741;-73
2021/09/07 05:19:41;;;;;;;;;21.00;17.67;;;;;19.58;61.38;101814.44;5011338;27;61426;-73
2021/09/07 05:22:06;;;;;;;;;21.00;20.00;;;;;19.56;61.17;101804.66;5004682;28;53101;-76
2021/09/07 05:24:32;;;;;;;;;23.67;17.67;;;;;19.55;62.16;101809.13;4998003;28;56281;-79
2021/09/07 05:26:57;;;;;;;;;20.67;18.33;;;;;19.57;61.67;101809.09;4996293;28;45465;-77
2021/09/07 05:29:23;;;;;;;;;21.00;18.67;;;;;19.59;61.23;101805.53;4993775;28;46433;-76
2021/09/07 05:31:48;;;;;;;;;20.00;18.33;;;;;19.60;61.87;101820.72;5004174;28;58617;-77
2021/09/07 05:34:13;;;;;;;;;22.33;19.00;;;;;19.62;60.98;101813.53;4986905;28;51840;-80
2021/09/07 05:37:04;;;;;;;;;21.67;17.33;;;;;19.63;61.63;101823.34;5003993;28;45539;-77
2021/09/07 05:39:29;;;;;;;;;20.67;17.00;;;;;19.60;61.80;101818.03;5007503;28;46645;-77
2021/09/07 05:41:55;;;;;;;;;22.33;18.00;;;;;19.63;61.71;101823.34;5001140;28;48547;-78
2021/09/07 05:44:20;;;;;;;;;23.00;18.67;;;;;19.62;61.67;101812.66;5006732;27;45572;-76
2021/09/07 05:46:46;;;;;;;;;21.67;18.00;;;;;19.66;61.40;101819.78;5007354;28;45613;-78
2021/09/07 05:49:11;;;;;;;;;20.00;19.00;;;;;19.69;61.60;101829.56;5005546;27;46597;-79
2021/09/07 05:51:37;;;;;;;;;24.33;21.33;;;;;19.67;61.53;101824.22;5004699;28;45478;-78
2021/09/07 05:54:02;;;;;;;;;21.33;19.00;;;;;19.69;61.67;101827.75;5004688;28;54866;-76
2021/09/07 05:56:28;;;;;;;;;20.33;20.00;;;;;19.70;61.86;101834.88;5007312;28;48257;-74
2021/09/07 05:58:54;;;;;;;;;20.33;20.00;;;;;19.70;61.34;101824.16;5014184;27;46686;-74
2021/09/07 06:01:20;;;;;;;;;21.67;18.67;;;;;19.71;61.14;101819.69;5007166;28;45962;-76
2021/09/07 06:03:45;;;;;;;;;27.00;26.33;;;;;19.73;61.45;101824.16;5003324;28;45718;-73
2021/09/07 06:06:10;;;;;;;;;30.00;25.33;;;;;19.77;61.33;101819.66;5003600;28;52453;-74
2021/09/07 06:08:36;;;;;;;;;28.00;25.67;;;;;19.77;61.73;101823.22;4999560;28;57354;-75
2021/09/07 06:11:04;;;;;;;;;26.33;20.00;;;;;19.81;61.49;101827.63;5005189;28;45812;-74
2021/09/07 06:13:29;;;;;;;;;19.33;19.33;;;;;19.84;61.67;101824.03;5007726;27;45719;-74
2021/09/07 06:15:55;;;;;;;;;23.67;20.33;;;;;19.87;61.06;101815.97;5008430;28;45541;-76
2021/09/07 06:18:20;;;;;;;;;21.00;18.33;;;;;19.91;61.76;101816.78;5006174;28;45639;-75
2021/09/07 06:20:52;;;;;;;;;23.00;21.67;;;;;19.94;61.58;101814.09;5007543;28;52135;-76
2021/09/07 06:23:17;;;;;;;;;24.67;20.00;;;;;19.96;61.49;101815.84;5003739;28;52081;-76
2021/09/07 06:25:42;;;;;;;;;24.33;20.00;;;;;20.00;61.26;101817.56;5006386;28;57233;-75
2021/09/07 06:28:08;;;;;;;;;26.67;22.67;;;;;20.00;61.59;101814.00;5005598;28;46487;-77
2021/09/07 06:30:33;;;;;;;;;24.67;21.67;;;;;20.07;61.19;101826.44;5006708;28;48260;-77
2021/09/07 06:32:59;;;;;;;;;23.67;21.00;;;;;20.04;61.19;101818.44;5008813;27;45434;-76
2021/09/07 06:35:24;;;;;;;;;23.00;22.33;;;;;20.13;60.83;101845.09;5088606;27;45558;-76
2021/09/07 06:37:49;;;;;;;;;24.33;22.33;;;;;20.18;60.75;101831.66;5005523;27;50463;-76
2021/09/07 06:40:15;;;;;;;;;24.00;22.33;;;;;20.21;60.30;101832.50;5003401;27;45431;-75
2021/09/07 06:42:40;;;;;;;;;24.00;21.00;;;;;20.26;60.83;101827.97;5009117;27;45476;-75
2021/09/07 06:45:06;;;;;;;;;28.00;24.67;;;;;20.26;60.50;101827.97;5001361;28;45743;-75
2021/09/07 06:47:32;;;;;;;;;31.33;23.33;;;;;20.32;60.86;101827.88;5063917;22;45570;-74
2021/09/07 06:50:00;;;;;;;;;25.33;22.33;;;;;20.35;61.15;101830.53;5099274;27;45475;-73
2021/09/07 06:52:25;;;;;;;;;21.00;19.33;;;;;20.37;60.77;101836.75;5094785;27;45552;-74
2021/09/07 06:54:51;;;;;;;;;21.33;18.33;;;;;20.47;60.52;101836.69;5075549;27;45547;-77
2021/09/07 06:57:17;;;;;;;;;25.67;23.00;;;;;20.50;60.20;101841.97;5099625;27;55314;-74
2021/09/07 06:59:42;;;;;;;;;26.33;24.00;;;;;20.54;60.70;101839.25;5093215;27;45526;-74
2021/09/07 07:02:08;;;;;;;;;21.00;18.33;;;;;20.56;60.24;101832.06;5106268;22;56344;-76
2021/09/07 07:04:33;;;;;;;;;21.33;21.00;;;;;20.61;60.20;101837.34;5098733;27;45441;-75
2021/09/07 07:06:58;;;;;;;;;26.33;23.33;;;;;20.64;59.64;101842.69;5094906;27;57164;-74
2021/09/07 07:09:24;;;;;;;;;31.67;28.67;;;;;20.67;59.63;101845.34;5093774;27;56393;-75
2021/09/07 07:11:49;;;;;;;;;33.67;26.00;;;;;20.66;59.83;101838.16;5095432;27;52734;-76
2021/09/07 07:14:20;;;;;;;;;33.67;28.00;;;;;20.75;59.75;101842.53;5093841;27;45465;-76
2021/09/07 07:16:46;;;;;;;;;28.00;24.00;;;;;20.76;59.59;101837.13;5093021;27;47724;-76
2021/09/07 07:19:11;;;;;;;;;26.67;24.33;;;;;20.83;59.80;101848.69;5092552;27;45445;-75
2021/09/07 07:21:37;;;;;;;;;25.00;20.67;;;;;20.84;59.40;101842.41;5088856;27;45804;-75
2021/09/07 07:24:02;;;;;;;;;28.33;23.67;;;;;20.89;59.22;101851.25;5093004;27;47184;-75
2021/09/07 07:26:27;;;;;;;;;27.00;23.67;;;;;20.90;59.41;101851.22;5099326;27;46758;-75
2021/09/07 07:28:53;;;;;;;;;27.67;22.33;;;;;20.92;59.18;101846.72;5095345;27;45643;-75
2021/09/07 07:31:18;;;;;;;;;23.33;21.67;;;;;20.93;59.08;101852.97;5094003;27;45972;-75
2021/09/07 07:33:46;;;;;;;;;31.00;29.00;;;;;20.95;59.33;101839.53;5094134;27;45616;-75
2021/09/07 07:36:12;;;;;;;;;30.33;24.00;;;;;20.98;59.40;101851.09;5074473;27;45957;-74
2021/09/07 07:38:37;;;;;;;;;26.00;26.00;;;;;21.01;58.90;101850.19;5092512;27;45440;-75
2021/09/07 07:41:03;;;;;;;;;25.67;24.33;;;;;21.02;59.09;101841.22;5090113;27;51529;-75
2021/09/07 07:43:35;;;;;;;;;29.33;24.67;;;;;21.08;59.25;101852.72;5094309;27;45559;-75
2021/09/07 07:46:01;;;;;;;;;31.33;25.00;;;;;21.04;59.07;101836.69;5091345;27;46468;-76
2021/09/07 07:48:26;;;;;;;;;25.67;23.00;;;;;21.10;59.06;101840.19;5094646;27;45470;-76
2021/09/07 07:50:52;;;;;;;;;20.67;18.33;;;;;21.09;58.47;101843.78;5093769;27;47287;-75
2021/09/07 07:53:17;;;;;;;;;24.67;20.67;;;;;21.18;58.62;101861.53;5091083;27;47689;-76
2021/09/07 07:55:43;;;;;;;;;23.00;18.67;;;;;21.21;58.21;101850.75;4997445;22;47217;-75
2021/09/07 07:58:08;;;;;;;;;20.33;18.00;;;;;21.24;58.22;101860.53;4987494;28;55764;-75
2021/09/07 08:00:34;;;;;;;;;21.00;17.33;;;;;21.28;58.47;101848.84;4985676;28;51383;-75
2021/09/07 08:02:59;;;;;;;;;21.33;21.00;;;;;21.33;58.40;101847.00;4995069;22;47588;-75
2021/09/07 08:05:24;;;;;;;;;18.00;16.33;;;;;21.36;58.42;101845.16;4985900;28;60103;-76
2021/09/07 08:07:50;;;;;;;;;22.00;21.67;;;;;21.42;57.59;101849.53;4982680;28;53438;-74
2021/09/07 08:10:15;;;;;;;;;26.00;22.00;;;;;21.47;57.56;101846.75;4984594;28;45815;-74
2021/09/07 08:12:41;;;;;;;;;30.67;19.67;;;;;21.51;57.68;101852.03;4984465;28;45658;-74
2021/09/07 08:15:07;;;;;;;;;24.67;20.67;;;;;21.51;57.11;101835.91;4985825;28;46166;-74
2021/09/07 08:17:32;;;;;;;;;22.67;19.33;;;;;21.60;57.05;101843.81;4985405;28;45494;-76
2021/09/07 08:19:57;;;;;;;;;27.67;19.67;;;;;21.65;57.36;101849.97;4983910;28;52492;-74
2021/09/07 08:22:23;;;;;;;;;25.67;23.00;;;;;21.70;56.42;101848.09;4982907;28;49864;-74
2021/09/07 08:24:49;;;;;;;;;18.00;18.00;;;;;21.75;56.28;101849.81;4983610;28;48200;-75
2021/09/07 08:27:15;;;;;;;;;26.33;19.00;;;;;21.82;56.71;101851.47;4983480;28;45594;-75
2021/09/07 08:29:40;;;;;;;;;25.00;20.33;;;;;21.83;56.07;101843.34;4986052;28;45544;-75
2021/09/07 08:32:06;;;;;;;;;23.33;20.33;;;;;21.90;56.25;101838.78;4987599;28;45524;-75
2021/09/07 08:34:31;;;;;;;;;22.67;18.67;;;;;21.99;55.81;101849.31;4970405;28;46455;-75
2021/09/07 08:36:57;;;;;;;;;19.00;17.67;;;;;22.05;56.17;101842.94;4986554;28;59733;-74
2021/09/07 08:39:22;;;;;;;;;29.00;20.00;;;;;22.11;55.90;101846.44;4986308;28;45561;-75
2021/09/07 08:41:48;;;;;;;;;27.00;18.33;;;;;22.16;55.80;101849.91;4985336;28;45600;-75
2021/09/07 08:44:18;;;;;;;;;22.67;18.33;;;;;22.22;55.70;101851.59;4982939;28;47281;-73
2021/09/07 08:46:44;;;;;;;;;20.33;17.00;;;;;22.27;55.51;101851.50;4986466;28;45502;-74
2021/09/07 08:49:11;;;;;;;;;26.00;18.33;;;;;22.32;55.67;101842.41;4987255;28;45837;-73
2021/09/07 08:51:37;;;;;;;;;21.33;16.67;;;;;22.38;55.31;101846.78;4985485;28;45911;-74
2021/09/07 08:54:02;;;;;;;;;19.00;17.33;;;;;22.44;55.46;101852.91;4965570;28;46838;-74
2021/09/07 08:56:28;;;;;;;;;18.67;18.33;;;;;22.49;54.84;101852.81;4986090;28;52528;-74
2021/09/07 08:58:53;;;;;;;;;19.33;18.00;;;;;22.55;54.53;101849.09;4985925;28;47462;-73
2021/09/07 09:01:18;;;;;;;;;19.33;17.00;;;;;22.59;54.98;101840.91;4984833;28;53222;-73
2021/09/07 09:03:45;;;;;;;;;19.00;15.33;;;;;22.66;55.79;101841.66;4988078;28;45643;-73
2021/09/07 09:06:11;;;;;;;;;26.67;26.00;;;;;22.70;54.88;101840.66;4982433;28;45766;-77
2021/09/07 09:08:37;;;;;;;;;23.67;22.00;;;;;22.77;55.00;101847.66;4987359;28;45493;-74
2021/09/07 09:11:06;;;;;;;;;23.00;19.00;;;;;22.78;54.91;101835.97;4990316;28;45501;-75
2021/09/07 09:13:45;;;;;;;;;21.00;18.33;;;;;22.88;54.39;101851.00;4982464;28;47234;-74
2021/09/07 09:16:20;;;;;;;;;19.67;18.33;;;;;22.93;54.29;101849.09;4976444;27;45842;-75
2021/09/07 09:19:32;;;;;;;;;20.33;18.67;;;;;23.01;54.19;101851.63;4951790;27;47655;-74
2021/09/07 09:21:58;;;;;;;;;19.33;15.33;;;;;23.07;55.14;101847.91;4957190;27;46720;-74
2021/09/07 09:24:23;;;;;;;;;21.33;17.67;;;;;22.96;53.50;101827.50;4988162;28;45839;-75
2021/09/07 09:26:59;;;;;;;;;19.33;17.00;;;;;23.18;54.03;101854.78;4985960;28;45541;-73
2021/09/07 09:29:35;;;;;;;;;22.33;17.67;;;;;23.24;53.58;101859.13;4984341;28;45509;-74
2021/09/07 09:32:07;;;;;;;;;19.67;14.00;;;;;23.33;54.72;101853.50;4984601;28;46574;-76
2021/09/07 09:34:35;;;;;;;;;18.00;16.00;;;;;23.37;53.35;101857.00;4976166;27;46521;-73
2021/09/07 09:37:07;;;;;;;;;17.67;15.67;;;;;23.39;52.23;101839.88;4989078;28;45532;-73
2021/09/07 09:39:44;;;;;;;;;25.00;16.00;;;;;23.49;52.46;101841.41;4981715;28;45757;-74
2021/09/07 09:42:14;;;;;;;;;20.00;13.00;;;;;23.56;52.89;101841.22;4991662;28;45497;-74
2021/09/07 09:44:39;;;;;;;;;18.00;13.67;;;;;23.63;53.40;101834.78;4987984;27;46004;-74
2021/09/07 09:47:05;;;;;;;;;17.33;15.00;;;;;23.68;53.35;101831.03;4990809;28;45558;-74
2021/09/07 09:49:30;;;;;;;;;18.00;12.67;;;;;23.72;52.78;101823.75;4988213;28;45440;-75
2021/09/07 09:52:08;;;;;;;;;13.00;13.00;;;;;23.78;53.14;101820.88;4966235;28;46181;-76
2021/09/07 09:54:35;;;;;;;;;14.33;13.00;;;;;23.85;52.33;101821.56;4989091;28;46748;-76
2021/09/07 09:57:02;;;;;;;;;16.33;15.67;;;;;23.86;51.60;101805.34;4981924;28;45511;-74
2021/09/07 09:59:28;;;;;;;;;15.00;13.33;;;;;23.96;52.79;101814.03;4990236;28;45616;-74
2021/09/07 10:01:55;;;;;;;;;14.00;12.00;;;;;24.01;53.27;101815.69;4987050;28;45657;-77
2021/09/07 10:04:20;;;;;;;;;10.67;10.67;;;;;24.05;51.64;101809.28;4985708;28;47382;-75
2021/09/07 10:06:50;;;;;;;;;14.33;12.00;;;;;24.08;52.17;101807.44;4989568;28;45508;-73
2021/09/07 10:09:17;;;;;;;;;12.33;11.33;;;;;24.13;50.89;101802.75;4973447;28;45476;-73
2021/09/07 10:11:42;;;;;;;;;15.33;12.67;;;;;24.21;51.27;101795.31;4972301;28;45551;-75
2021/09/07 10:14:07;;;;;;;;;11.33;11.33;;;;;24.27;52.42;101796.00;4966191;28;53454;-75
2021/09/07 10:16:41;;;;;;;;;19.00;13.33;;;;;24.34;51.18;101793.13;4952018;28;45442;-79
2021/09/07 10:26:42;;;;;;;;;13.00;12.00;;;;;24.66;49.02;101784.03;5036917;27;45446;-79
2021/09/07 10:29:08;;;;;;;;;13.33;11.00;;;;;24.77;47.20;101780.06;5009080;27;45468;-80
2021/09/07 10:31:58;;;;;;;;;11.00;11.00;;;;;24.86;46.94;101776.16;5022076;22;45554;-79
2021/09/07 10:34:26;;;;;;;;;13.00;12.33;;;;;24.83;47.35;101758.25;5073801;27;47001;-79
2021/09/07 10:37:02;;;;;;;;;14.33;12.33;;;;;24.99;47.48;101764.03;5073707;28;45366;-79
2021/09/07 10:39:31;;;;;;;;;13.33;10.67;;;;;25.06;46.94;101760.19;5074270;27;45491;-79
2021/09/07 10:41:56;;;;;;;;;12.33;12.33;;;;;25.15;46.67;101763.53;5074816;27;45506;-80
2021/09/07 10:44:28;;;;;;;;;14.00;12.00;;;;;25.22;46.86;101756.97;5072691;28;45524;-79
2021/09/07 10:46:57;;;;;;;;;11.33;11.33;;;;;25.30;45.48;101749.44;5070523;27;45537;-79
2021/09/07 10:49:25;;;;;;;;;14.33;10.67;;;;;25.37;46.55;101745.59;5063403;27;46640;-79
2021/09/07 10:52:25;;;;;;;;;15.67;11.67;;;;;25.47;46.01;101747.03;5073924;27;45511;-79
2021/09/07 10:54:53;;;;;;;;;14.67;13.33;;;;;25.55;46.29;101734.09;5069854;28;47344;-79
2021/09/07 10:57:45;;;;;;;;;14.67;13.00;;;;;25.64;45.66;101729.31;5053127;23;45537;-79
2021/09/07 11:00:14;;;;;;;;;18.00;13.67;;;;;25.72;45.03;101736.16;4995628;28;45488;-79
2021/09/07 11:02:41;;;;;;;;;14.00;13.33;;;;;25.80;45.08;101725.09;4988088;28;45565;-79
2021/09/07 11:05:08;;;;;;;;;11.33;9.67;;;;;25.88;45.59;101709.44;4993527;23;46446;-79
2021/09/07 11:07:40;;;;;;;;;12.00;12.00;;;;;25.96;43.93;101715.44;4983695;28;45578;-79
2021/09/07 11:10:15;;;;;;;;;12.00;10.33;;;;;26.04;44.06;101716.03;4987517;28;45503;-80
2021/09/07 11:12:49;;;;;;;;;15.67;14.00;;;;;26.07;44.31;101701.50;4986987;28;47381;-79
2021/09/07 11:15:15;;;;;;;;;12.00;12.00;;;;;26.10;44.31;101694.16;4988380;28;47856;-80